• Join FlightAware (Why Join?)
  • Login
  • US Flag 
03:55AM EDT


 

Airport Tracker/Info


-or-


 

Live Flight TrackerFlight Track Log ✈ XOJ552 ✈ 24-Oct-2013 ✈ KBJC - KVNY

Flight Track Log - Related Links

Times and Time Zones

All times are in EDT time to prevent confusion due to time zone crossing. See the XOJ552 flight status page for this flight to view local times or setup timezone preferences in your user account.

Time Position Orientation Groundspeed Altitude Reporting Facility
EDT Latitude Longitude Course Direction KTS MPH feet Rate Location/Type
07:03PM 39.9536 -105.1344 344° North 204 235 8,400  Level Denver Center
07:04PM 40.0028 -105.1811 324° Northwest 234 269 13,200 3,720 Climbing Denver Center
07:05PM 39.9800 -105.2772 253° West 276 318 16,100 2,700 Climbing Denver Center
07:06PM 39.9369 -105.4044 246° West 356 410 18,900 2,880 Climbing Denver Center
07:07PM 39.8969 -105.5289 247° West 374 430 22,100 2,820 Climbing Denver Center
07:08PM 39.8536 -105.6586 247° West 395 455 24,800 2,520 Climbing Denver Center
07:09PM 39.8086 -105.7931 246° West 408 470 27,400 2,340 Climbing Denver Center
07:10PM 39.7647 -105.9292 247° West 410 472 29,700 1,980 Climbing Denver Center
07:11PM 39.7056 -106.1039 246° West 438 504 31,600 1,620 Climbing Denver Center
07:12PM 39.6639 -106.2311 247° West 449 517 33,100 1,680 Climbing Denver Center
07:13PM 39.6036 -106.4128 247° West 457 526 35,100 1,800 Climbing Denver Center
07:14PM 39.5553 -106.5542 246° West 453 521 36,900 1,920 Climbing Denver Center
07:15PM 39.4997 -106.7178 246° West 444 511 39,100 1,860 Climbing Denver Center
07:16PM 39.4522 -106.8503 245° Southwest 430 495 40,800 1,260 Climbing Denver Center
07:17PM 39.4081 -107.0114 251° West 426 490 41,800 840 Climbing Denver Center
07:18PM 39.3742 -107.1533 253° West 431 496 42,600 420 Climbing Denver Center
07:20PM 39.3225 -107.3169 248° West 442 509 42,700  Climbing Denver Center
07:21PM 39.2633 -107.4558 241° Southwest 456 525 42,700  Level Denver Center
07:22PM 39.2044 -107.5928 241° Southwest 455 524 42,700  Level Denver Center
07:23PM 39.1353 -107.7517 241° Southwest 455 524 42,700  Level Denver Center
07:24PM 39.0772 -107.8850 241° Southwest 447 514 42,700 120 Level Denver Center
07:25PM 39.0094 -108.0400 241° Southwest 443 510 43,000 120 Climbing Denver Center
07:26PM 38.9514 -108.1725 241° Southwest 443 510 43,000  Level Denver Center
07:27PM 38.8831 -108.3264 240° Southwest 443 510 43,000  Level Denver Center
07:28PM 38.8244 -108.4594 241° Southwest 445 512 43,000  Level Denver Center
07:29PM 38.7569 -108.6122 241° Southwest 441 507 43,000  Level Denver Center
07:30PM 38.6981 -108.7425 240° Southwest 439 505 43,000  Level Denver Center
07:31PM 38.6303 -108.8958 241° Southwest 441 507 43,000  Level Denver Center
07:32PM 38.5708 -109.0258 240° Southwest 441 507 43,000  Level Denver Center
07:33PM 38.5125 -109.1547 240° Southwest 437 503 43,000  Level Denver Center
07:34PM 38.4428 -109.3075 240° Southwest 443 510 43,000  Level Denver Center
07:35PM 38.3836 -109.4369 240° Southwest 442 509 43,000  Level Denver Center
07:36PM 38.3147 -109.5872 240° Southwest 440 506 43,000  Level Denver Center
07:37PM 38.2561 -109.7147 240° Southwest 435 501 43,000  Level Denver Center
07:38PM 38.1858 -109.8656 239° Southwest 443 510 43,000  Level Denver Center
07:39PM 38.1261 -109.9939 239° Southwest 441 507 43,000  Level Denver Center
07:40PM 38.0556 -110.1431 239° Southwest 440 506 43,000  Level Denver Center
07:41PM 37.9933 -110.2758 239° Southwest 442 509 43,000  Level Denver Center
07:42PM 37.9342 -110.4039 240° Southwest 440 506 43,000  Level Denver Center
07:43PM 37.8656 -110.5481 239° Southwest 440 506 43,000  Level Denver Center
07:44PM 37.7956 -110.6936 239° Southwest 440 506 43,000  Level Denver Center
07:45PM 37.7325 -110.8261 239° Southwest 440 506 43,000  Level Denver Center
07:46PM 37.6686 -110.9581 239° Southwest 441 507 43,000  Level Denver Center
07:47PM 37.6064 -111.0897 239° Southwest 438 504 43,000  Level Denver Center
07:48PM 37.5419 -111.2211 238° Southwest 441 507 43,000  Level Denver Center
07:50PM 37.4789 -111.3533 239° Southwest 440 506 43,000  Level Denver Center
07:51PM 37.4019 -111.5094 238° Southwest 438 504 43,000  Level Denver Center
07:52PM 37.3383 -111.6403 239° Southwest 438 504 43,000  Level Denver Center
07:53PM 37.2750 -111.7697 238° Southwest 435 501 43,000  Level Denver Center
07:54PM 37.1989 -111.9231 238° Southwest 434 499 43,000  Level Los Angeles Center
07:56PM 37.0825 -112.1569 238° Southwest 436 502 43,000  Level Denver Center
07:57PM 37.0183 -112.2875 238° Southwest 438 504 43,000  Level Denver Center
07:58PM 36.9400 -112.4419 238° Southwest 439 505 43,000  Level Los Angeles Center
07:59PM 36.8619 -112.5961 238° Southwest 436 502 43,000  Level Los Angeles Center
08:00PM 36.7969 -112.7256 238° Southwest 438 504 43,000  Level Los Angeles Center
08:01PM 36.7314 -112.8525 237° Southwest 436 502 43,000  Level Los Angeles Center
08:02PM 36.6667 -112.9814 238° Southwest 437 503 43,000  Level Los Angeles Center
08:03PM 36.6011 -113.1086 237° Southwest 438 504 43,000  Level Los Angeles Center
08:04PM 36.5350 -113.2353 237° Southwest 437 503 43,000  Level Los Angeles Center
08:05PM 36.4769 -113.3475 237° Southwest 438 504 43,000  Level Los Angeles Center
08:06PM 36.3994 -113.4997 238° Southwest 436 502 43,000  Level Los Angeles Center
08:07PM 36.3211 -113.6503 237° Southwest 434 499 43,000  Level Los Angeles Center
08:08PM 36.2556 -113.7767 237° Southwest 434 499 43,000  Level Los Angeles Center
08:09PM 36.1894 -113.9025 237° Southwest 434 499 43,000  Level Los Angeles Center
08:10PM 36.1228 -114.0281 237° Southwest 437 503 43,000 -60 Level Los Angeles Center
08:11PM 36.0567 -114.1544 237° Southwest 436 502 42,900 -720 Descending Los Angeles Center
08:12PM 35.9900 -114.2808 237° Southwest 437 503 41,600 -1,380 Descending Los Angeles Center
08:13PM 35.9094 -114.4303 236° Southwest 435 501 40,100 -1,320 Descending Los Angeles Center
08:15PM 35.8458 -114.5500 237° Southwest 423 487 38,900 -1,020 Descending Los Angeles Center
08:16PM 35.7811 -114.6725 237° Southwest 423 487 38,000 -480 Descending Los Angeles Center
08:17PM 35.7131 -114.8014 237° Southwest 442 509 38,000 -300 Level Los Angeles Center
08:18PM 35.6436 -114.9306 237° Southwest 450 518 37,400 -780 Descending Los Angeles Center
08:19PM 35.5769 -115.0531 236° Southwest 434 499 36,400 -1,020 Descending Los Angeles Center
08:20PM 35.5100 -115.1750 236° Southwest 430 495 35,400 -1,080 Descending Los Angeles Center
08:21PM 35.4303 -115.3222 236° Southwest 430 495 34,200 -1,140 Descending Los Angeles Center
08:22PM 35.3597 -115.4506 236° Southwest 447 514 33,100 -1,080 Descending Los Angeles Center
08:23PM 35.2919 -115.5761 237° Southwest 463 533 32,000 -1,140 Descending Los Angeles Center
08:24PM 35.2211 -115.7044 236° Southwest 457 526 30,800 -1,140 Descending Los Angeles Center
08:25PM 35.1514 -115.8311 236° Southwest 452 520 29,700 -1,260 Descending Los Angeles Center
08:26PM 35.0683 -115.9800 236° Southwest 444 511 28,300 -1,260 Descending Los Angeles Center
08:27PM 34.9986 -116.1042 236° Southwest 442 509 27,200 -1,080 Descending Los Angeles Center
08:28PM 34.9289 -116.2258 235° Southwest 440 506 26,100 -1,080 Descending Los Angeles Center
08:29PM 34.8611 -116.3467 236° Southwest 435 501 25,000 -1,080 Descending Los Angeles Center
08:30PM 34.7964 -116.4708 238° Southwest 433 498 23,900 -1,020 Descending Los Angeles Center
08:31PM 34.7833 -116.6092 263° West 416 479 22,900 -1,020 Descending Los Angeles Center
08:32PM 34.7681 -116.7681 263° West 396 456 21,800 -960 Descending Los Angeles Center
08:33PM 34.7550 -116.8961 263° West 385 443 20,900 -900 Descending Los Angeles Center
08:34PM 34.7417 -117.0272 263° West 388 447 20,000 -540 Descending Los Angeles Center
08:35PM 34.7272 -117.1619 263° West 400 460 19,900 -600 Descending Los Angeles Center
08:36PM 34.7133 -117.2942 263° West 395 455 18,800 -1,080 Descending Los Angeles Center
08:37PM 34.7008 -117.4219 263° West 383 441 17,700 -1,080 Descending Los Angeles Center
08:38PM 34.6872 -117.5497 263° West 379 436 16,600 -1,260 Descending Los Angeles Center
08:39PM 34.6661 -117.7008 260° West 378 435 15,100 -1,440 Descending Los Angeles Center
08:40PM 34.6475 -117.8275 260° West 379 436 13,700 -1,320 Descending Los Angeles Center
08:41PM 34.6294 -117.9497 260° West 368 423 12,400 -1,260 Descending Los Angeles Center
08:42PM 34.6106 -118.0689 259° West 360 414 11,100 -1,260 Descending Los Angeles Center
08:44PM 34.5947 -118.1825 260° West 312 359 9,900 -1,080 Descending Los Angeles Center
08:45PM 34.5792 -118.2769 259° West 292 336 8,900 -960 Descending Los Angeles Center
08:46PM 34.5672 -118.3525 259° West 289 333 8,000 -540 Descending Los Angeles Center
08:47PM 34.5394 -118.4631 253° West 293 337 7,800 -900 Descending Los Angeles Center
08:48PM 34.4553 -118.4997 200° South 275 316 6,200 -1,020 Descending Los Angeles Center
08:49PM 34.3875 -118.5097 187° South 246 283 5,700 -960 Descending Los Angeles Center
08:50PM 34.3319 -118.5033 175° South 215 247 4,300 -1,740 Descending Los Angeles Center
08:50PM 34.3000 -118.5000 175° South 163 188 2,800 -1,380 Descending Southern California TRACON
08:51PM 34.2500 -118.5000 180° South 131 151 2,000 -900 Descending Southern California TRACON
08:52PM 34.2167 -118.4833 158° South 120 138 1,100 -900 Descending Southern California TRACON
08:55PM 34.2098 -118.4900 180° South  Level Estimated